sensor_id;sensor_type;location;lat;lon;timestamp;P1;durP1;ratioP1;P2;durP2;ratioP2
809;SDS011;387;48.772;9.186;2023-04-03T00:01:33;6.87;;;3.67;;
809;SDS011;387;48.772;9.186;2023-04-03T00:04:00;6.67;;;4.50;;
809;SDS011;387;48.772;9.186;2023-04-03T00:06:25;6.10;;;4.33;;
809;SDS011;387;48.772;9.186;2023-04-03T00:08:51;6.50;;;3.90;;
809;SDS011;387;48.772;9.186;2023-04-03T00:11:17;5.83;;;3.67;;
809;SDS011;387;48.772;9.186;2023-04-03T00:13:43;7.80;;;4.50;;
809;SDS011;387;48.772;9.186;2023-04-03T00:16:10;5.90;;;4.57;;
809;SDS011;387;48.772;9.186;2023-04-03T00:18:36;7.00;;;4.90;;
809;SDS011;387;48.772;9.186;2023-04-03T00:21:03;8.70;;;4.83;;
809;SDS011;387;48.772;9.186;2023-04-03T00:23:29;8.60;;;4.30;;
809;SDS011;387;48.772;9.186;2023-04-03T00:25:55;8.87;;;4.40;;
809;SDS011;387;48.772;9.186;2023-04-03T00:28:21;6.67;;;4.23;;
809;SDS011;387;48.772;9.186;2023-04-03T00:30:48;5.23;;;3.40;;
809;SDS011;387;48.772;9.186;2023-04-03T00:33:15;7.03;;;4.40;;
809;SDS011;387;48.772;9.186;2023-04-03T00:35:41;8.53;;;4.43;;
809;SDS011;387;48.772;9.186;2023-04-03T00:38:06;8.77;;;4.07;;
809;SDS011;387;48.772;9.186;2023-04-03T00:40:34;7.23;;;4.57;;
809;SDS011;387;48.772;9.186;2023-04-03T00:43:14;7.10;;;3.80;;
809;SDS011;387;48.772;9.186;2023-04-03T00:45:48;7.73;;;4.00;;
809;SDS011;387;48.772;9.186;2023-04-03T00:48:35;6.80;;;4.30;;
809;SDS011;387;48.772;9.186;2023-04-03T00:51:07;7.60;;;3.90;;
809;SDS011;387;48.772;9.186;2023-04-03T00:53:47;7.63;;;4.03;;
809;SDS011;387;48.772;9.186;2023-04-03T00:56:17;6.30;;;3.70;;
809;SDS011;387;48.772;9.186;2023-04-03T01:01:20;7.67;;;4.10;;
809;SDS011;387;48.772;9.186;2023-04-03T01:03:49;15.23;;;4.60;;
809;SDS011;387;48.772;9.186;2023-04-03T01:06:16;5.60;;;3.97;;
809;SDS011;387;48.772;9.186;2023-04-03T01:08:44;6.50;;;4.20;;
809;SDS011;387;48.772;9.186;2023-04-03T01:11:11;8.53;;;3.73;;
809;SDS011;387;48.772;9.186;2023-04-03T01:13:37;7.10;;;3.80;;
809;SDS011;387;48.772;9.186;2023-04-03T01:16:04;6.53;;;3.90;;
809;SDS011;387;48.772;9.186;2023-04-03T01:18:30;6.80;;;4.00;;
809;SDS011;387;48.772;9.186;2023-04-03T01:24:01;7.20;;;3.87;;
809;SDS011;387;48.772;9.186;2023-04-03T01:26:35;6.63;;;3.90;;
809;SDS011;387;48.772;9.186;2023-04-03T01:29:00;4.87;;;3.47;;
809;SDS011;387;48.772;9.186;2023-04-03T01:33:55;7.33;;;4.13;;
809;SDS011;387;48.772;9.186;2023-04-03T01:36:22;8.67;;;4.70;;
809;SDS011;387;48.772;9.186;2023-04-03T01:38:50;6.97;;;3.50;;
809;SDS011;387;48.772;9.186;2023-04-03T01:41:16;5.40;;;3.50;;
809;SDS011;387;48.772;9.186;2023-04-03T01:43:42;5.03;;;3.87;;
809;SDS011;387;48.772;9.186;2023-04-03T01:46:08;7.83;;;4.27;;
809;SDS011;387;48.772;9.186;2023-04-03T01:48:34;5.67;;;4.43;;
809;SDS011;387;48.772;9.186;2023-04-03T01:51:00;6.60;;;4.00;;
809;SDS011;387;48.772;9.186;2023-04-03T01:53:25;6.33;;;4.20;;
809;SDS011;387;48.772;9.186;2023-04-03T01:55:51;6.93;;;3.67;;
809;SDS011;387;48.772;9.186;2023-04-03T01:58:16;6.17;;;3.50;;
809;SDS011;387;48.772;9.186;2023-04-03T02:00:42;6.70;;;4.33;;
809;SDS011;387;48.772;9.186;2023-04-03T02:03:07;8.20;;;3.60;;
809;SDS011;387;48.772;9.186;2023-04-03T02:05:33;5.93;;;3.80;;
809;SDS011;387;48.772;9.186;2023-04-03T02:07:59;7.77;;;3.83;;
809;SDS011;387;48.772;9.186;2023-04-03T02:10:25;8.27;;;4.80;;
809;SDS011;387;48.772;9.186;2023-04-03T02:12:51;9.47;;;4.33;;
809;SDS011;387;48.772;9.186;2023-04-03T02:15:17;5.30;;;4.10;;
809;SDS011;387;48.772;9.186;2023-04-03T02:17:42;9.90;;;3.90;;
809;SDS011;387;48.772;9.186;2023-04-03T02:20:08;5.87;;;3.50;;
809;SDS011;387;48.772;9.186;2023-04-03T02:22:35;5.53;;;3.67;;
809;SDS011;387;48.772;9.186;2023-04-03T02:25:00;7.73;;;4.43;;
809;SDS011;387;48.772;9.186;2023-04-03T02:27:26;5.00;;;4.10;;
809;SDS011;387;48.772;9.186;2023-04-03T02:29:52;7.13;;;3.60;;
809;SDS011;387;48.772;9.186;2023-04-03T02:32:18;5.03;;;3.80;;
809;SDS011;387;48.772;9.186;2023-04-03T02:34:43;6.93;;;3.87;;
809;SDS011;387;48.772;9.186;2023-04-03T02:37:09;9.10;;;4.60;;
809;SDS011;387;48.772;9.186;2023-04-03T02:39:35;10.07;;;4.30;;
809;SDS011;387;48.772;9.186;2023-04-03T02:42:00;4.90;;;3.60;;
809;SDS011;387;48.772;9.186;2023-04-03T02:44:26;6.13;;;3.80;;
809;SDS011;387;48.772;9.186;2023-04-03T02:46:55;5.30;;;3.77;;
809;SDS011;387;48.772;9.186;2023-04-03T02:49:20;6.40;;;4.20;;
809;SDS011;387;48.772;9.186;2023-04-03T02:51:46;5.33;;;3.83;;
809;SDS011;387;48.772;9.186;2023-04-03T02:54:12;5.13;;;3.97;;
809;SDS011;387;48.772;9.186;2023-04-03T02:56:38;5.50;;;3.67;;
809;SDS011;387;48.772;9.186;2023-04-03T02:59:03;5.90;;;4.00;;
809;SDS011;387;48.772;9.186;2023-04-03T03:01:30;10.00;;;4.10;;
809;SDS011;387;48.772;9.186;2023-04-03T03:03:57;7.03;;;4.27;;
809;SDS011;387;48.772;9.186;2023-04-03T03:06:24;6.40;;;4.07;;
809;SDS011;387;48.772;9.186;2023-04-03T03:08:49;7.63;;;4.13;;
809;SDS011;387;48.772;9.186;2023-04-03T03:11:15;7.00;;;3.90;;
809;SDS011;387;48.772;9.186;2023-04-03T03:13:41;8.33;;;4.00;;
809;SDS011;387;48.772;9.186;2023-04-03T03:16:06;13.60;;;4.10;;
809;SDS011;387;48.772;9.186;2023-04-03T03:18:32;5.67;;;3.73;;
809;SDS011;387;48.772;9.186;2023-04-03T03:20:59;8.20;;;3.80;;
809;SDS011;387;48.772;9.186;2023-04-03T03:23:26;5.90;;;3.77;;
809;SDS011;387;48.772;9.186;2023-04-03T03:25:56;5.77;;;3.97;;
809;SDS011;387;48.772;9.186;2023-04-03T03:28:23;7.50;;;3.83;;
809;SDS011;387;48.772;9.186;2023-04-03T03:30:49;6.97;;;4.10;;
809;SDS011;387;48.772;9.186;2023-04-03T03:33:15;5.60;;;4.10;;
809;SDS011;387;48.772;9.186;2023-04-03T03:35:42;6.50;;;3.93;;
809;SDS011;387;48.772;9.186;2023-04-03T03:38:08;8.37;;;4.73;;
809;SDS011;387;48.772;9.186;2023-04-03T03:40:33;4.47;;;3.30;;
809;SDS011;387;48.772;9.186;2023-04-03T03:42:59;6.77;;;4.20;;
809;SDS011;387;48.772;9.186;2023-04-03T03:45:25;7.57;;;4.10;;
809;SDS011;387;48.772;9.186;2023-04-03T03:47:50;6.83;;;4.10;;
809;SDS011;387;48.772;9.186;2023-04-03T03:50:16;6.03;;;3.93;;
809;SDS011;387;48.772;9.186;2023-04-03T03:52:41;7.67;;;4.27;;
809;SDS011;387;48.772;9.186;2023-04-03T03:55:07;5.43;;;3.87;;
809;SDS011;387;48.772;9.186;2023-04-03T03:57:33;5.53;;;3.27;;
809;SDS011;387;48.772;9.186;2023-04-03T03:59:58;8.00;;;4.50;;
809;SDS011;387;48.772;9.186;2023-04-03T04:02:24;4.93;;;3.40;;
809;SDS011;387;48.772;9.186;2023-04-03T04:04:49;7.83;;;4.67;;
809;SDS011;387;48.772;9.186;2023-04-03T04:07:15;4.83;;;3.57;;
809;SDS011;387;48.772;9.186;2023-04-03T04:09:41;6.20;;;3.80;;
809;SDS011;387;48.772;9.186;2023-04-03T04:12:06;5.60;;;4.00;;
809;SDS011;387;48.772;9.186;2023-04-03T04:14:32;6.00;;;3.50;;
809;SDS011;387;48.772;9.186;2023-04-03T04:16:57;5.60;;;3.57;;
809;SDS011;387;48.772;9.186;2023-04-03T04:19:23;10.70;;;4.40;;
809;SDS011;387;48.772;9.186;2023-04-03T04:21:49;9.03;;;5.33;;
809;SDS011;387;48.772;9.186;2023-04-03T04:24:15;6.40;;;3.87;;
809;SDS011;387;48.772;9.186;2023-04-03T04:26:40;6.77;;;3.37;;
809;SDS011;387;48.772;9.186;2023-04-03T04:29:06;7.53;;;4.27;;
809;SDS011;387;48.772;9.186;2023-04-03T04:31:33;6.07;;;4.30;;
809;SDS011;387;48.772;9.186;2023-04-03T04:33:59;4.90;;;3.50;;
809;SDS011;387;48.772;9.186;2023-04-03T04:36:25;5.90;;;4.00;;
809;SDS011;387;48.772;9.186;2023-04-03T04:38:50;9.10;;;4.03;;
809;SDS011;387;48.772;9.186;2023-04-03T04:41:17;6.60;;;4.30;;
809;SDS011;387;48.772;9.186;2023-04-03T04:43:46;5.87;;;3.67;;
809;SDS011;387;48.772;9.186;2023-04-03T04:46:11;6.97;;;3.93;;
809;SDS011;387;48.772;9.186;2023-04-03T04:48:37;9.70;;;4.30;;
809;SDS011;387;48.772;9.186;2023-04-03T04:51:03;6.47;;;3.57;;
809;SDS011;387;48.772;9.186;2023-04-03T04:53:29;7.97;;;4.00;;
809;SDS011;387;48.772;9.186;2023-04-03T04:55:55;7.33;;;4.10;;
809;SDS011;387;48.772;9.186;2023-04-03T04:58:20;6.57;;;4.23;;
809;SDS011;387;48.772;9.186;2023-04-03T05:00:46;6.50;;;3.70;;
809;SDS011;387;48.772;9.186;2023-04-03T05:03:11;6.07;;;3.77;;
809;SDS011;387;48.772;9.186;2023-04-03T05:05:37;6.73;;;3.60;;
809;SDS011;387;48.772;9.186;2023-04-03T05:08:03;5.33;;;3.43;;
809;SDS011;387;48.772;9.186;2023-04-03T05:10:29;5.50;;;3.97;;
809;SDS011;387;48.772;9.186;2023-04-03T05:12:56;5.40;;;4.20;;
809;SDS011;387;48.772;9.186;2023-04-03T05:15:21;5.27;;;3.77;;
809;SDS011;387;48.772;9.186;2023-04-03T05:17:47;6.80;;;4.80;;
809;SDS011;387;48.772;9.186;2023-04-03T05:20:13;8.10;;;3.60;;
809;SDS011;387;48.772;9.186;2023-04-03T05:22:38;6.43;;;3.50;;
809;SDS011;387;48.772;9.186;2023-04-03T05:25:04;5.67;;;3.53;;
809;SDS011;387;48.772;9.186;2023-04-03T05:27:30;8.37;;;4.13;;
809;SDS011;387;48.772;9.186;2023-04-03T05:29:56;5.27;;;3.63;;
809;SDS011;387;48.772;9.186;2023-04-03T05:32:23;6.20;;;4.00;;
809;SDS011;387;48.772;9.186;2023-04-03T05:34:50;5.63;;;3.60;;
809;SDS011;387;48.772;9.186;2023-04-03T05:37:16;5.33;;;3.20;;
809;SDS011;387;48.772;9.186;2023-04-03T05:39:42;6.90;;;3.93;;
809;SDS011;387;48.772;9.186;2023-04-03T05:42:07;9.13;;;3.80;;
809;SDS011;387;48.772;9.186;2023-04-03T05:44:33;5.40;;;4.53;;
809;SDS011;387;48.772;9.186;2023-04-03T05:46:59;7.03;;;5.30;;
809;SDS011;387;48.772;9.186;2023-04-03T05:49:24;7.90;;;4.03;;
809;SDS011;387;48.772;9.186;2023-04-03T05:51:50;6.53;;;3.90;;
809;SDS011;387;48.772;9.186;2023-04-03T05:54:29;7.33;;;3.57;;
809;SDS011;387;48.772;9.186;2023-04-03T05:56:55;9.00;;;4.00;;
809;SDS011;387;48.772;9.186;2023-04-03T05:59:21;11.70;;;4.20;;
809;SDS011;387;48.772;9.186;2023-04-03T06:01:46;7.70;;;3.70;;
809;SDS011;387;48.772;9.186;2023-04-03T06:04:12;7.50;;;4.53;;
809;SDS011;387;48.772;9.186;2023-04-03T06:06:42;3.70;;;3.50;;
809;SDS011;387;48.772;9.186;2023-04-03T06:09:14;8.20;;;4.97;;
809;SDS011;387;48.772;9.186;2023-04-03T06:11:41;6.13;;;3.90;;
809;SDS011;387;48.772;9.186;2023-04-03T06:14:07;5.20;;;3.97;;
809;SDS011;387;48.772;9.186;2023-04-03T06:16:33;5.40;;;3.63;;
809;SDS011;387;48.772;9.186;2023-04-03T06:18:59;4.47;;;3.47;;
809;SDS011;387;48.772;9.186;2023-04-03T06:21:25;6.03;;;3.80;;
809;SDS011;387;48.772;9.186;2023-04-03T06:23:51;8.40;;;3.60;;
809;SDS011;387;48.772;9.186;2023-04-03T06:26:17;9.50;;;3.40;;
809;SDS011;387;48.772;9.186;2023-04-03T06:28:43;5.90;;;3.80;;
809;SDS011;387;48.772;9.186;2023-04-03T06:31:08;5.50;;;3.43;;
809;SDS011;387;48.772;9.186;2023-04-03T06:33:34;6.03;;;3.63;;
809;SDS011;387;48.772;9.186;2023-04-03T06:36:00;12.07;;;3.97;;
809;SDS011;387;48.772;9.186;2023-04-03T06:38:28;5.40;;;3.80;;
809;SDS011;387;48.772;9.186;2023-04-03T06:40:53;9.23;;;3.93;;
809;SDS011;387;48.772;9.186;2023-04-03T06:43:19;9.70;;;3.67;;
809;SDS011;387;48.772;9.186;2023-04-03T06:45:46;4.83;;;3.60;;
809;SDS011;387;48.772;9.186;2023-04-03T06:48:12;7.67;;;4.10;;
809;SDS011;387;48.772;9.186;2023-04-03T06:50:38;7.27;;;4.40;;
809;SDS011;387;48.772;9.186;2023-04-03T06:53:03;8.47;;;4.17;;
809;SDS011;387;48.772;9.186;2023-04-03T06:55:29;6.70;;;3.23;;
809;SDS011;387;48.772;9.186;2023-04-03T06:57:55;9.80;;;4.63;;
809;SDS011;387;48.772;9.186;2023-04-03T07:00:21;8.60;;;4.47;;
809;SDS011;387;48.772;9.186;2023-04-03T07:02:46;6.23;;;3.90;;
809;SDS011;387;48.772;9.186;2023-04-03T07:05:12;5.33;;;3.57;;
809;SDS011;387;48.772;9.186;2023-04-03T07:07:38;5.70;;;3.90;;
809;SDS011;387;48.772;9.186;2023-04-03T07:10:04;5.67;;;3.70;;
809;SDS011;387;48.772;9.186;2023-04-03T07:12:31;6.00;;;3.83;;
809;SDS011;387;48.772;9.186;2023-04-03T07:14:59;3.70;;;3.17;;
809;SDS011;387;48.772;9.186;2023-04-03T07:17:25;6.37;;;3.43;;
809;SDS011;387;48.772;9.186;2023-04-03T07:19:51;5.40;;;3.67;;
809;SDS011;387;48.772;9.186;2023-04-03T07:22:17;4.10;;;3.03;;
809;SDS011;387;48.772;9.186;2023-04-03T07:24:43;6.97;;;4.10;;
809;SDS011;387;48.772;9.186;2023-04-03T07:27:09;8.03;;;4.33;;
809;SDS011;387;48.772;9.186;2023-04-03T07:29:34;5.57;;;4.07;;
809;SDS011;387;48.772;9.186;2023-04-03T07:32:01;7.67;;;3.30;;
809;SDS011;387;48.772;9.186;2023-04-03T07:34:27;6.33;;;4.10;;
809;SDS011;387;48.772;9.186;2023-04-03T07:36:52;7.13;;;4.43;;
809;SDS011;387;48.772;9.186;2023-04-03T07:39:18;6.90;;;4.00;;
809;SDS011;387;48.772;9.186;2023-04-03T07:41:44;7.60;;;4.17;;
809;SDS011;387;48.772;9.186;2023-04-03T07:44:09;6.13;;;3.73;;
809;SDS011;387;48.772;9.186;2023-04-03T07:46:35;5.17;;;3.90;;
809;SDS011;387;48.772;9.186;2023-04-03T07:49:01;7.77;;;3.97;;
809;SDS011;387;48.772;9.186;2023-04-03T07:51:27;8.50;;;4.37;;
809;SDS011;387;48.772;9.186;2023-04-03T07:53:54;5.10;;;3.80;;
809;SDS011;387;48.772;9.186;2023-04-03T07:56:20;4.87;;;3.37;;
809;SDS011;387;48.772;9.186;2023-04-03T07:58:46;6.00;;;3.63;;
809;SDS011;387;48.772;9.186;2023-04-03T08:01:12;9.50;;;4.17;;
809;SDS011;387;48.772;9.186;2023-04-03T08:03:38;5.00;;;3.43;;
809;SDS011;387;48.772;9.186;2023-04-03T08:06:05;9.10;;;3.97;;
809;SDS011;387;48.772;9.186;2023-04-03T08:08:33;7.57;;;4.10;;
809;SDS011;387;48.772;9.186;2023-04-03T08:11:00;4.90;;;3.63;;
809;SDS011;387;48.772;9.186;2023-04-03T08:13:27;6.60;;;3.47;;
809;SDS011;387;48.772;9.186;2023-04-03T08:15:54;7.00;;;3.50;;
809;SDS011;387;48.772;9.186;2023-04-03T08:18:22;7.90;;;4.23;;
809;SDS011;387;48.772;9.186;2023-04-03T08:20:49;6.30;;;4.37;;
809;SDS011;387;48.772;9.186;2023-04-03T08:23:15;5.13;;;3.87;;
809;SDS011;387;48.772;9.186;2023-04-03T08:25:42;7.60;;;4.17;;
809;SDS011;387;48.772;9.186;2023-04-03T08:28:08;9.20;;;5.00;;
809;SDS011;387;48.772;9.186;2023-04-03T08:30:34;9.40;;;4.53;;
809;SDS011;387;48.772;9.186;2023-04-03T08:33:01;6.10;;;3.80;;
809;SDS011;387;48.772;9.186;2023-04-03T08:35:27;6.13;;;3.80;;
809;SDS011;387;48.772;9.186;2023-04-03T08:37:53;6.90;;;4.03;;
809;SDS011;387;48.772;9.186;2023-04-03T08:40:18;7.13;;;4.50;;
809;SDS011;387;48.772;9.186;2023-04-03T08:42:47;7.10;;;4.10;;
809;SDS011;387;48.772;9.186;2023-04-03T08:45:26;8.23;;;4.47;;
809;SDS011;387;48.772;9.186;2023-04-03T08:50:41;6.40;;;4.33;;
809;SDS011;387;48.772;9.186;2023-04-03T08:53:14;11.37;;;4.60;;
809;SDS011;387;48.772;9.186;2023-04-03T08:55:46;7.07;;;4.73;;
809;SDS011;387;48.772;9.186;2023-04-03T08:58:16;8.07;;;4.40;;
809;SDS011;387;48.772;9.186;2023-04-03T09:03:30;8.50;;;4.40;;
809;SDS011;387;48.772;9.186;2023-04-03T09:08:51;8.20;;;4.43;;
809;SDS011;387;48.772;9.186;2023-04-03T09:14:46;16.20;;;4.20;;
809;SDS011;387;48.772;9.186;2023-04-03T09:22:32;7.10;;;4.50;;
809;SDS011;387;48.772;9.186;2023-04-03T09:25:14;7.33;;;4.23;;
809;SDS011;387;48.772;9.186;2023-04-03T09:27:43;6.70;;;3.90;;
809;SDS011;387;48.772;9.186;2023-04-03T09:30:16;6.00;;;4.30;;
809;SDS011;387;48.772;9.186;2023-04-03T09:32:50;5.23;;;3.77;;
809;SDS011;387;48.772;9.186;2023-04-03T09:35:23;5.53;;;4.00;;
809;SDS011;387;48.772;9.186;2023-04-03T09:37:49;6.73;;;3.90;;
809;SDS011;387;48.772;9.186;2023-04-03T09:42:51;6.70;;;4.30;;
809;SDS011;387;48.772;9.186;2023-04-03T09:45:22;5.87;;;3.17;;
809;SDS011;387;48.772;9.186;2023-04-03T09:47:49;8.87;;;3.90;;
809;SDS011;387;48.772;9.186;2023-04-03T09:50:33;7.50;;;3.90;;
809;SDS011;387;48.772;9.186;2023-04-03T09:53:01;6.47;;;3.97;;
809;SDS011;387;48.772;9.186;2023-04-03T09:55:53;8.40;;;4.10;;
809;SDS011;387;48.772;9.186;2023-04-03T10:01:02;6.80;;;4.17;;
809;SDS011;387;48.772;9.186;2023-04-03T10:03:33;6.60;;;4.00;;
809;SDS011;387;48.772;9.186;2023-04-03T10:06:00;5.70;;;3.47;;
809;SDS011;387;48.772;9.186;2023-04-03T10:08:29;6.97;;;3.90;;
809;SDS011;387;48.772;9.186;2023-04-03T10:11:07;9.50;;;4.00;;
809;SDS011;387;48.772;9.186;2023-04-03T10:13:54;5.93;;;3.70;;
809;SDS011;387;48.772;9.186;2023-04-03T10:16:25;7.90;;;3.77;;
809;SDS011;387;48.772;9.186;2023-04-03T10:21:35;4.47;;;3.50;;
809;SDS011;387;48.772;9.186;2023-04-03T10:24:17;7.00;;;3.60;;
809;SDS011;387;48.772;9.186;2023-04-03T10:26:52;5.20;;;3.50;;
809;SDS011;387;48.772;9.186;2023-04-03T10:35:10;10.67;;;3.93;;
809;SDS011;387;48.772;9.186;2023-04-03T10:43:49;12.63;;;4.63;;
809;SDS011;387;48.772;9.186;2023-04-03T10:46:28;6.67;;;3.50;;
809;SDS011;387;48.772;9.186;2023-04-03T10:51:35;8.23;;;3.50;;
809;SDS011;387;48.772;9.186;2023-04-03T10:56:48;4.37;;;3.47;;
809;SDS011;387;48.772;9.186;2023-04-03T11:02:11;6.13;;;3.30;;
809;SDS011;387;48.772;9.186;2023-04-03T11:04:44;4.50;;;2.80;;
809;SDS011;387;48.772;9.186;2023-04-03T11:07:18;6.97;;;3.80;;
809;SDS011;387;48.772;9.186;2023-04-03T11:09:49;8.60;;;3.23;;
809;SDS011;387;48.772;9.186;2023-04-03T11:12:26;4.83;;;2.73;;
809;SDS011;387;48.772;9.186;2023-04-03T11:15:17;6.83;;;3.10;;
809;SDS011;387;48.772;9.186;2023-04-03T11:18:18;8.10;;;3.47;;
809;SDS011;387;48.772;9.186;2023-04-03T11:20:53;4.50;;;2.70;;
809;SDS011;387;48.772;9.186;2023-04-03T11:23:42;6.70;;;3.00;;
809;SDS011;387;48.772;9.186;2023-04-03T11:26:14;4.93;;;2.87;;
809;SDS011;387;48.772;9.186;2023-04-03T11:28:53;4.60;;;3.00;;
809;SDS011;387;48.772;9.186;2023-04-03T11:34:20;6.13;;;2.90;;
809;SDS011;387;48.772;9.186;2023-04-03T11:36:59;4.43;;;2.93;;
809;SDS011;387;48.772;9.186;2023-04-03T11:39:32;6.10;;;3.03;;
809;SDS011;387;48.772;9.186;2023-04-03T11:45:16;4.80;;;2.90;;
809;SDS011;387;48.772;9.186;2023-04-03T11:47:50;5.50;;;2.73;;
809;SDS011;387;48.772;9.186;2023-04-03T11:50:30;9.30;;;2.93;;
809;SDS011;387;48.772;9.186;2023-04-03T11:53:00;5.60;;;3.30;;
809;SDS011;387;48.772;9.186;2023-04-03T12:13:34;5.30;;;3.27;;
809;SDS011;387;48.772;9.186;2023-04-03T12:16:07;4.90;;;3.30;;
809;SDS011;387;48.772;9.186;2023-04-03T12:21:14;5.00;;;3.20;;
809;SDS011;387;48.772;9.186;2023-04-03T12:34:39;5.83;;;3.00;;
809;SDS011;387;48.772;9.186;2023-04-03T12:45:50;7.07;;;3.17;;
809;SDS011;387;48.772;9.186;2023-04-03T12:48:34;4.73;;;3.00;;
809;SDS011;387;48.772;9.186;2023-04-03T12:51:19;5.57;;;3.50;;
809;SDS011;387;48.772;9.186;2023-04-03T12:54:19;5.83;;;2.60;;
809;SDS011;387;48.772;9.186;2023-04-03T12:59:42;13.43;;;4.33;;
809;SDS011;387;48.772;9.186;2023-04-03T13:02:15;3.90;;;2.60;;
809;SDS011;387;48.772;9.186;2023-04-03T13:04:48;3.90;;;2.63;;
809;SDS011;387;48.772;9.186;2023-04-03T13:07:19;8.23;;;2.90;;
809;SDS011;387;48.772;9.186;2023-04-03T13:10:00;5.53;;;3.43;;
809;SDS011;387;48.772;9.186;2023-04-03T13:12:48;6.07;;;2.90;;
809;SDS011;387;48.772;9.186;2023-04-03T13:15:20;5.30;;;2.90;;
809;SDS011;387;48.772;9.186;2023-04-03T13:17:48;5.13;;;3.20;;
809;SDS011;387;48.772;9.186;2023-04-03T13:25:16;6.10;;;2.90;;
809;SDS011;387;48.772;9.186;2023-04-03T13:27:45;5.70;;;3.03;;
809;SDS011;387;48.772;9.186;2023-04-03T13:30:19;6.40;;;3.10;;
809;SDS011;387;48.772;9.186;2023-04-03T13:32:54;4.23;;;3.10;;
809;SDS011;387;48.772;9.186;2023-04-03T13:38:04;4.43;;;3.73;;
809;SDS011;387;48.772;9.186;2023-04-03T13:40:54;5.87;;;3.20;;
809;SDS011;387;48.772;9.186;2023-04-03T13:43:26;4.60;;;2.87;;
809;SDS011;387;48.772;9.186;2023-04-03T13:46:02;4.63;;;3.00;;
809;SDS011;387;48.772;9.186;2023-04-03T13:48:37;5.00;;;2.97;;
809;SDS011;387;48.772;9.186;2023-04-03T13:51:05;5.27;;;2.90;;
809;SDS011;387;48.772;9.186;2023-04-03T13:53:43;3.03;;;2.50;;
809;SDS011;387;48.772;9.186;2023-04-03T13:58:53;6.60;;;2.97;;
809;SDS011;387;48.772;9.186;2023-04-03T14:01:20;4.87;;;3.03;;
809;SDS011;387;48.772;9.186;2023-04-03T14:03:57;4.83;;;3.30;;
809;SDS011;387;48.772;9.186;2023-04-03T14:06:26;4.40;;;2.77;;
809;SDS011;387;48.772;9.186;2023-04-03T14:08:52;5.93;;;2.90;;
809;SDS011;387;48.772;9.186;2023-04-03T14:11:19;7.33;;;3.27;;
809;SDS011;387;48.772;9.186;2023-04-03T14:13:49;5.50;;;3.07;;
809;SDS011;387;48.772;9.186;2023-04-03T14:16:16;4.40;;;2.87;;
809;SDS011;387;48.772;9.186;2023-04-03T14:18:45;5.13;;;3.03;;
809;SDS011;387;48.772;9.186;2023-04-03T14:21:12;4.10;;;2.90;;
809;SDS011;387;48.772;9.186;2023-04-03T14:23:39;3.83;;;2.93;;
809;SDS011;387;48.772;9.186;2023-04-03T14:26:09;4.50;;;2.73;;
809;SDS011;387;48.772;9.186;2023-04-03T14:28:41;5.57;;;2.83;;
809;SDS011;387;48.772;9.186;2023-04-03T14:31:07;6.47;;;3.33;;
809;SDS011;387;48.772;9.186;2023-04-03T14:33:32;4.73;;;3.53;;
809;SDS011;387;48.772;9.186;2023-04-03T14:36:01;5.13;;;2.73;;
809;SDS011;387;48.772;9.186;2023-04-03T14:38:28;5.67;;;3.10;;
809;SDS011;387;48.772;9.186;2023-04-03T14:40:56;5.57;;;3.07;;
809;SDS011;387;48.772;9.186;2023-04-03T14:43:22;4.83;;;3.10;;
809;SDS011;387;48.772;9.186;2023-04-03T14:45:48;3.53;;;3.00;;
809;SDS011;387;48.772;9.186;2023-04-03T14:48:16;5.63;;;3.00;;
809;SDS011;387;48.772;9.186;2023-04-03T14:50:45;5.00;;;3.03;;
809;SDS011;387;48.772;9.186;2023-04-03T14:53:11;5.17;;;3.03;;
809;SDS011;387;48.772;9.186;2023-04-03T14:55:39;6.10;;;3.27;;
809;SDS011;387;48.772;9.186;2023-04-03T14:58:13;4.23;;;2.87;;
809;SDS011;387;48.772;9.186;2023-04-03T15:00:40;6.30;;;3.10;;
809;SDS011;387;48.772;9.186;2023-04-03T15:03:09;4.50;;;3.53;;
809;SDS011;387;48.772;9.186;2023-04-03T15:05:46;3.80;;;2.60;;
809;SDS011;387;48.772;9.186;2023-04-03T15:08:17;3.30;;;2.67;;
809;SDS011;387;48.772;9.186;2023-04-03T15:10:48;4.50;;;2.73;;
809;SDS011;387;48.772;9.186;2023-04-03T15:13:14;4.10;;;3.07;;
809;SDS011;387;48.772;9.186;2023-04-03T15:15:40;5.57;;;3.10;;
809;SDS011;387;48.772;9.186;2023-04-03T15:18:06;3.57;;;2.50;;
809;SDS011;387;48.772;9.186;2023-04-03T15:20:38;3.77;;;2.60;;
809;SDS011;387;48.772;9.186;2023-04-03T15:23:04;5.93;;;2.73;;
809;SDS011;387;48.772;9.186;2023-04-03T15:25:31;3.57;;;2.40;;
809;SDS011;387;48.772;9.186;2023-04-03T15:27:57;5.33;;;2.50;;
809;SDS011;387;48.772;9.186;2023-04-03T15:30:23;6.90;;;2.97;;
809;SDS011;387;48.772;9.186;2023-04-03T15:32:49;2.70;;;2.13;;
809;SDS011;387;48.772;9.186;2023-04-03T15:35:15;4.90;;;3.00;;
809;SDS011;387;48.772;9.186;2023-04-03T15:37:40;6.03;;;3.30;;
809;SDS011;387;48.772;9.186;2023-04-03T15:40:06;3.27;;;2.50;;
809;SDS011;387;48.772;9.186;2023-04-03T15:42:33;9.07;;;3.30;;
809;SDS011;387;48.772;9.186;2023-04-03T15:44:58;3.73;;;2.63;;
809;SDS011;387;48.772;9.186;2023-04-03T15:47:25;10.00;;;2.80;;
809;SDS011;387;48.772;9.186;2023-04-03T15:49:51;5.13;;;3.00;;
809;SDS011;387;48.772;9.186;2023-04-03T15:52:17;6.57;;;2.87;;
809;SDS011;387;48.772;9.186;2023-04-03T15:54:43;4.67;;;3.00;;
809;SDS011;387;48.772;9.186;2023-04-03T15:57:09;4.00;;;2.90;;
809;SDS011;387;48.772;9.186;2023-04-03T15:59:34;8.07;;;3.30;;
809;SDS011;387;48.772;9.186;2023-04-03T16:02:00;3.93;;;2.77;;
809;SDS011;387;48.772;9.186;2023-04-03T16:04:28;4.80;;;2.70;;
809;SDS011;387;48.772;9.186;2023-04-03T16:06:54;5.57;;;3.07;;
809;SDS011;387;48.772;9.186;2023-04-03T16:09:20;5.70;;;3.00;;
809;SDS011;387;48.772;9.186;2023-04-03T16:11:46;6.53;;;2.97;;
809;SDS011;387;48.772;9.186;2023-04-03T16:14:11;4.63;;;2.70;;
809;SDS011;387;48.772;9.186;2023-04-03T16:16:37;8.83;;;3.43;;
809;SDS011;387;48.772;9.186;2023-04-03T16:19:03;5.07;;;3.00;;
809;SDS011;387;48.772;9.186;2023-04-03T16:21:30;6.00;;;3.30;;
809;SDS011;387;48.772;9.186;2023-04-03T16:23:57;5.00;;;3.10;;
809;SDS011;387;48.772;9.186;2023-04-03T16:26:24;5.53;;;2.83;;
809;SDS011;387;48.772;9.186;2023-04-03T16:28:50;4.43;;;2.73;;
809;SDS011;387;48.772;9.186;2023-04-03T16:31:16;6.13;;;3.10;;
809;SDS011;387;48.772;9.186;2023-04-03T16:33:45;5.63;;;2.80;;
809;SDS011;387;48.772;9.186;2023-04-03T16:36:14;4.10;;;2.40;;
809;SDS011;387;48.772;9.186;2023-04-03T16:38:40;2.60;;;2.20;;
809;SDS011;387;48.772;9.186;2023-04-03T16:41:06;4.10;;;2.83;;
809;SDS011;387;48.772;9.186;2023-04-03T16:43:32;4.50;;;2.73;;
809;SDS011;387;48.772;9.186;2023-04-03T16:45:58;7.00;;;2.87;;
809;SDS011;387;48.772;9.186;2023-04-03T16:48:23;4.87;;;2.90;;
809;SDS011;387;48.772;9.186;2023-04-03T16:50:49;3.80;;;2.50;;
809;SDS011;387;48.772;9.186;2023-04-03T16:53:18;5.70;;;2.90;;
809;SDS011;387;48.772;9.186;2023-04-03T16:55:44;5.53;;;2.97;;
809;SDS011;387;48.772;9.186;2023-04-03T16:58:10;11.43;;;3.40;;
809;SDS011;387;48.772;9.186;2023-04-03T17:00:35;8.20;;;2.90;;
809;SDS011;387;48.772;9.186;2023-04-03T17:03:01;5.60;;;3.20;;
809;SDS011;387;48.772;9.186;2023-04-03T17:05:27;5.60;;;2.87;;
809;SDS011;387;48.772;9.186;2023-04-03T17:07:53;8.10;;;3.53;;
809;SDS011;387;48.772;9.186;2023-04-03T17:10:18;5.33;;;2.83;;
809;SDS011;387;48.772;9.186;2023-04-03T17:12:44;5.50;;;2.80;;
809;SDS011;387;48.772;9.186;2023-04-03T17:15:10;4.07;;;2.70;;
809;SDS011;387;48.772;9.186;2023-04-03T17:17:36;7.60;;;3.13;;
809;SDS011;387;48.772;9.186;2023-04-03T17:20:02;5.70;;;3.20;;
809;SDS011;387;48.772;9.186;2023-04-03T17:22:28;7.50;;;3.50;;
809;SDS011;387;48.772;9.186;2023-04-03T17:24:54;6.37;;;3.10;;
809;SDS011;387;48.772;9.186;2023-04-03T17:27:20;10.70;;;3.60;;
809;SDS011;387;48.772;9.186;2023-04-03T17:29:46;6.47;;;3.13;;
809;SDS011;387;48.772;9.186;2023-04-03T17:32:11;6.33;;;2.93;;
809;SDS011;387;48.772;9.186;2023-04-03T17:34:37;5.50;;;2.80;;
809;SDS011;387;48.772;9.186;2023-04-03T17:37:03;6.70;;;2.90;;
809;SDS011;387;48.772;9.186;2023-04-03T17:39:29;6.00;;;3.40;;
809;SDS011;387;48.772;9.186;2023-04-03T17:41:55;7.80;;;3.00;;
809;SDS011;387;48.772;9.186;2023-04-03T17:44:21;5.90;;;2.87;;